x

Pensacola - 115nm Ese Of Pensacola, Fl (42039) Wave Buoy

8:50pm - Tue 30th Jun 2015 All times are CDT. -5 hours from GMT.

  • Sig Wave height 2.6ft
  • Swell Direction
  • Peak Period 5s
  • Average Period 4s
  • Wind
    9mph, 11mph gusts
  • Sea Temp 83°f
  • Air Temp 82°f
  • Sea Pressure 1018.4mb
  • Pensacola - 115nm Ese Of Pensacola, Fl
  • Pensacola - 115nm Ese Of Pensacola, Fl

More Historic Weather Station data

Upgrade to MSW Pro to gain access to the past 30 days of data for over 8000 Wavebouys and Weather Stations around the globe.

Join Pro

Comparision Forecast

View Surf forecast
   
Tue 06/30 8:50pm 2.5ft 5s 4s 9 11 mph 1018.4mb 83f 82f
7:50pm 2.5ft 5s 4s 11 13 mph 1017.5mb 83f 82f
6:50pm 2.5ft 5s 4s 16 20 mph 1019.2mb 83f 81f
5:50pm 2ft 5s 4s 11 16 mph 1019mb 84f 84f
4:50pm 2ft 5s 4s 18 25 mph 1018.5mb 83f 81f
3:50pm 2ft 5s 4s 11 13 mph 1018.9mb 84f 84f
2:50pm 2ft 4s 4s 13 16 mph 1019.6mb 84f 84f
1:50pm 2ft 4s 4s 13 16 mph 1019.2mb 84f 84f
12:50pm 2ft 4s 4s 9 11 mph 1019.6mb 84f 84f
11:50am 2ft 4s 4s 13 16 mph 1019.8mb 84f 84f
10:50am 2.5ft 4s 4s 11 13 mph 1019.7mb 84f 84f
9:50am 2.5ft 4s 4s 13 16 mph 1019.6mb 84f 83f
8:50am 2.5ft 4s 4s 13 16 mph 1019.3mb 83f 83f
7:50am 2.5ft 4s 4s 16
mph
1019mb 83f 83f
6:50am 2.5ft 5s 4s 16 18 mph 1019.1mb 83f 83f
5:50am 2.5ft 5s 4s 16 18 mph 1018.7mb 83f 83f
4:50am 2.5ft 5s 4s 13 18 mph 1018.2mb 83f 83f
3:50am 2.5ft 5s 4s 16 18 mph 1018.2mb 83f 83f
2:50am 2.5ft 5s 4s 13 16 mph 1018.3mb 83f 83f
1:50am 2.5ft 6s 4s 13 16 mph 1018.4mb 83f 83f
12:50am 2.5ft 5s 4s 11 13 mph 1018.5mb 83f 83f
Mon 06/29 11:50pm 2.5ft 6s 5s 9 11 mph 1018.8mb 84f 82f
10:50pm 2.5ft 6s 5s 9 11 mph 1018.6mb 84f 83f
9:50pm 2.5ft 6s 5s 9 11 mph 1018.2mb 84f 83f
8:50pm 2.5ft 6s 5s 7 9 mph 1017.3mb 84f 82f
7:50pm 2.5ft 6s 5s 9 11 mph 1017.5mb 84f 82f
6:50pm 2.5ft 6s 4s 13
mph
1017.5mb 84f 83f
5:50pm 2.5ft 5s 4s 13 16 mph 1017.4mb 84f 83f
4:50pm 3ft 6s 5s 16 20 mph 1017.4mb 84f 83f
3:50pm 3ft 6s 4s 9 11 mph 1017.4mb 84f 81f
2:50pm 4ft 6s 4s 9 11 mph 1018.2mb 84f 80f
1:50pm 4.5ft 6s 4s 18 22 mph 1018.8mb 83f 78f
12:50pm 4ft 5s 4s 16 20 mph 1019.1mb 84f 82f
11:50am 4ft 6s 4s 11 13 mph 1019mb 84f 80f
10:50am 4.5ft 5s 4s 18 22 mph 1019.6mb 83f 80f
9:50am 4.5ft 5s 4s 18 22 mph 1019.4mb 83f 79f
8:50am 4ft 5s 4s 25 31 mph 1018.6mb 83f 79f
7:50am 5ft 5s 4s 11 13 mph 1018.5mb 83f 76f
6:50am 4.5ft 5s 4s 22 29 mph 1016.4mb 84f 82f
5:50am 4.5ft 6s 4s 22 25 mph 1016.1mb 84f 83f
4:50am 4.5ft 6s 4s 20 25 mph 1015.8mb 84f 83f
3:50am 4.5ft 6s 5s 18 22 mph 1015.8mb 84f 83f
2:50am 4.5ft 6s 5s 18 20 mph 1015.8mb 84f 83f
1:50am 3.5ft 6s 5s 18 25 mph 1015.8mb 84f 82f
12:50am 3.5ft 6s 5s 16 20 mph 1016.3mb 84f 82f
Sun 06/28 11:50pm 4ft 6s 5s 16 18 mph 1016.7mb 84f 83f
10:50pm 3.5ft 6s 5s 16 18 mph 1016.8mb 84f 83f
9:50pm 4ft 6s 5s 13 18 mph 1016.5mb 84f 83f
8:50pm 4.5ft 6s 5s 16 20 mph 1016.6mb 84f 82f
7:50pm 5ft 6s 5s 18 20 mph 1016.2mb 84f 82f
6:50pm 5ft 6s 5s 18 22 mph 1016.2mb 84f 80f
5:50pm 5.5ft 6s 5s 20 25 mph 1015.4mb 84f 81f
4:50pm 5ft 6s 5s 22 29 mph 1016mb 84f 81f
3:50pm 5ft 6s 5s 25 29 mph 1016.2mb 84f 81f
2:50pm 5.5ft 6s 5s 20 22 mph 1016.7mb 85f 79f
1:50pm 5ft 6s 4s 27 31 mph 1017.5mb 85f 79f
12:50pm 5ft 6s 4s 25 31 mph 1018.7mb 85f 78f
11:50am 4.5ft 5s 4s 20 25 mph 1018.4mb 85f 80f
10:50am 4.5ft 5s 4s 13 16 mph 1017.8mb 85f 83f
9:50am 3.5ft 5s 4s 18 25 mph 1017.1mb 85f 82f
8:50am 4ft 6s 4s 18 22 mph 1016.9mb 85f 79f
7:50am 4ft 5s 4s 18 20 mph 1016.7mb 85f 82f
6:50am 4ft 5s 4s 18 22 mph 1016.1mb 85f 80f
5:50am 3.5ft 5s 4s 16 20 mph 1015.9mb 85f 83f
4:50am 3.5ft 6s 5s 18 20 mph 1015.3mb 85f 83f
3:50am 3.5ft 5s 4s 16 18 mph 1014.6mb 85f 83f
2:50am 3.5ft 6s 4s 18 20 mph 1014.7mb 85f 84f
1:50am 3.5ft 6s 4s 18 20 mph 1014.7mb 85f 84f
12:50am 3.5ft 6s 5s 18 20 mph 1015.6mb 85f 84f
Sat 06/27 11:50pm 3.5ft 6s 4s 13 16 mph 1016.6mb 85f 85f
10:50pm 3.5ft 6s 4s 13 16 mph 1017.1mb 85f 84f
9:50pm 3.5ft 6s 4s 16 18 mph 1017mb 85f 84f
8:50pm 3.5ft 5s 4s 16 20 mph 1016.1mb 86f 84f
7:50pm 3.5ft 5s 4s 16 18 mph 1016.4mb 86f 84f
6:50pm 3.5ft 5s 4s 16 18 mph 1016.4mb 86f 85f
5:50pm 3.5ft 6s 4s 16 20 mph 1015.9mb 86f 85f
4:50pm 3.5ft 5s 4s 16 20 mph 1015.7mb 86f 84f
3:50pm 3.5ft 5s 4s 13 16 mph 1016.1mb 86f 85f
2:50pm 3.5ft 5s 4s 16 18 mph 1016.5mb 85f 85f
1:50pm 3.5ft 5s 4s 16 18 mph 1017mb 85f 85f
12:50pm 3.5ft 5s 4s 13 16 mph 1017.6mb 85f 84f
11:50am 3ft 5s 4s 11 16 mph 1018.2mb 86f 84f
10:50am 3.5ft 5s 4s 13 16 mph 1018.1mb 86f 84f
9:50am 3.5ft 5s 4s 13 18 mph 1018.1mb 86f 84f
8:50am 3.5ft 5s 4s 16 18 mph 1018.1mb 85f 84f
7:50am 3ft 5s 4s 16 20 mph 1017.1mb 85f 84f
6:50am 3ft 5s 4s 16 18 mph 1016.7mb 85f 84f
5:50am 3ft 5s 4s 16 20 mph 1016.3mb 85f 83f
4:50am 3.5ft 4s 4s 18 20 mph 1015.8mb 85f 83f
3:50am 3ft 5s 4s 18 22 mph 1015.8mb 85f 84f